sensor_id;sensor_type;location;lat;lon;timestamp;P1;durP1;ratioP1;P2;durP2;ratioP2
9918;SDS011;4998;51.024;13.828;2023-01-29T00:01:14;4.70;;;4.30;;
9918;SDS011;4998;51.024;13.828;2023-01-29T00:03:42;5.20;;;4.67;;
9918;SDS011;4998;51.024;13.828;2023-01-29T00:06:09;6.30;;;4.40;;
9918;SDS011;4998;51.024;13.828;2023-01-29T00:08:37;8.30;;;5.13;;
9918;SDS011;4998;51.024;13.828;2023-01-29T00:11:06;7.20;;;4.37;;
9918;SDS011;4998;51.024;13.828;2023-01-29T00:13:34;4.50;;;4.10;;
9918;SDS011;4998;51.024;13.828;2023-01-29T00:16:01;4.20;;;3.80;;
9918;SDS011;4998;51.024;13.828;2023-01-29T00:18:29;5.47;;;4.20;;
9918;SDS011;4998;51.024;13.828;2023-01-29T00:20:56;4.27;;;3.90;;
9918;SDS011;4998;51.024;13.828;2023-01-29T00:23:24;4.97;;;4.20;;
9918;SDS011;4998;51.024;13.828;2023-01-29T00:25:51;4.40;;;4.10;;
9918;SDS011;4998;51.024;13.828;2023-01-29T00:28:19;4.67;;;4.03;;
9918;SDS011;4998;51.024;13.828;2023-01-29T00:30:46;4.10;;;3.80;;
9918;SDS011;4998;51.024;13.828;2023-01-29T00:33:13;4.60;;;4.20;;
9918;SDS011;4998;51.024;13.828;2023-01-29T00:35:40;4.13;;;3.80;;
9918;SDS011;4998;51.024;13.828;2023-01-29T00:38:07;4.97;;;4.43;;
9918;SDS011;4998;51.024;13.828;2023-01-29T00:40:36;4.97;;;4.50;;
9918;SDS011;4998;51.024;13.828;2023-01-29T00:43:23;4.83;;;3.90;;
9918;SDS011;4998;51.024;13.828;2023-01-29T00:46:08;4.47;;;3.90;;
9918;SDS011;4998;51.024;13.828;2023-01-29T00:48:35;4.13;;;3.73;;
9918;SDS011;4998;51.024;13.828;2023-01-29T00:51:03;4.90;;;4.40;;
9918;SDS011;4998;51.024;13.828;2023-01-29T00:53:30;4.63;;;4.20;;
9918;SDS011;4998;51.024;13.828;2023-01-29T00:55:57;4.70;;;4.30;;
9918;SDS011;4998;51.024;13.828;2023-01-29T00:58:26;4.60;;;4.20;;
9918;SDS011;4998;51.024;13.828;2023-01-29T01:00:58;5.10;;;4.33;;
9918;SDS011;4998;51.024;13.828;2023-01-29T01:03:26;4.80;;;4.40;;
9918;SDS011;4998;51.024;13.828;2023-01-29T01:06:02;5.87;;;4.33;;
9918;SDS011;4998;51.024;13.828;2023-01-29T01:08:30;5.63;;;4.90;;
9918;SDS011;4998;51.024;13.828;2023-01-29T01:11:15;4.37;;;3.97;;
9918;SDS011;4998;51.024;13.828;2023-01-29T01:13:44;5.10;;;4.60;;
9918;SDS011;4998;51.024;13.828;2023-01-29T01:16:12;5.30;;;4.80;;
9918;SDS011;4998;51.024;13.828;2023-01-29T01:18:40;5.40;;;4.53;;
9918;SDS011;4998;51.024;13.828;2023-01-29T01:21:07;4.97;;;4.47;;
9918;SDS011;4998;51.024;13.828;2023-01-29T01:23:35;4.47;;;4.07;;
9918;SDS011;4998;51.024;13.828;2023-01-29T01:26:05;4.80;;;4.40;;
9918;SDS011;4998;51.024;13.828;2023-01-29T01:28:34;5.50;;;5.00;;
9918;SDS011;4998;51.024;13.828;2023-01-29T01:31:08;4.93;;;4.53;;
9918;SDS011;4998;51.024;13.828;2023-01-29T01:33:36;4.87;;;4.33;;
9918;SDS011;4998;51.024;13.828;2023-01-29T01:36:03;4.80;;;4.40;;
9918;SDS011;4998;51.024;13.828;2023-01-29T01:38:34;4.90;;;4.40;;
9918;SDS011;4998;51.024;13.828;2023-01-29T01:41:08;4.40;;;4.00;;
9918;SDS011;4998;51.024;13.828;2023-01-29T01:43:46;5.07;;;4.57;;
9918;SDS011;4998;51.024;13.828;2023-01-29T01:46:16;8.70;;;6.00;;
9918;SDS011;4998;51.024;13.828;2023-01-29T01:48:43;5.60;;;4.37;;
9918;SDS011;4998;51.024;13.828;2023-01-29T01:51:11;5.00;;;4.50;;
9918;SDS011;4998;51.024;13.828;2023-01-29T01:53:40;6.00;;;4.77;;
9918;SDS011;4998;51.024;13.828;2023-01-29T01:56:12;5.87;;;5.27;;
9918;SDS011;4998;51.024;13.828;2023-01-29T01:58:44;4.97;;;4.57;;
9918;SDS011;4998;51.024;13.828;2023-01-29T02:01:17;5.23;;;4.80;;
9918;SDS011;4998;51.024;13.828;2023-01-29T02:03:52;5.20;;;4.70;;
9918;SDS011;4998;51.024;13.828;2023-01-29T02:06:40;5.93;;;5.33;;
9918;SDS011;4998;51.024;13.828;2023-01-29T02:09:26;5.63;;;4.60;;
9918;SDS011;4998;51.024;13.828;2023-01-29T02:11:59;6.03;;;5.43;;
9918;SDS011;4998;51.024;13.828;2023-01-29T02:14:27;4.80;;;4.40;;
9918;SDS011;4998;51.024;13.828;2023-01-29T02:16:56;5.37;;;4.80;;
9918;SDS011;4998;51.024;13.828;2023-01-29T02:19:28;5.30;;;4.80;;
9918;SDS011;4998;51.024;13.828;2023-01-29T02:28:18;5.80;;;5.20;;
9918;SDS011;4998;51.024;13.828;2023-01-29T02:30:52;5.57;;;5.00;;
9918;SDS011;4998;51.024;13.828;2023-01-29T02:33:29;6.13;;;5.53;;
9918;SDS011;4998;51.024;13.828;2023-01-29T02:36:04;6.33;;;5.73;;
9918;SDS011;4998;51.024;13.828;2023-01-29T02:38:41;6.60;;;5.90;;
9918;SDS011;4998;51.024;13.828;2023-01-29T02:41:14;5.47;;;4.93;;
9918;SDS011;4998;51.024;13.828;2023-01-29T02:43:51;6.60;;;5.90;;
9918;SDS011;4998;51.024;13.828;2023-01-29T02:46:26;7.20;;;6.20;;
9918;SDS011;4998;51.024;13.828;2023-01-29T02:48:58;6.90;;;5.50;;
9918;SDS011;4998;51.024;13.828;2023-01-29T02:51:33;5.77;;;5.23;;
9918;SDS011;4998;51.024;13.828;2023-01-29T02:54:05;5.97;;;5.40;;
9918;SDS011;4998;51.024;13.828;2023-01-29T02:56:36;6.20;;;5.70;;
9918;SDS011;4998;51.024;13.828;2023-01-29T02:59:07;6.20;;;5.60;;
9918;SDS011;4998;51.024;13.828;2023-01-29T03:01:39;7.13;;;6.20;;
9918;SDS011;4998;51.024;13.828;2023-01-29T03:04:14;6.77;;;6.07;;
9918;SDS011;4998;51.024;13.828;2023-01-29T03:06:47;7.33;;;6.00;;
9918;SDS011;4998;51.024;13.828;2023-01-29T03:09:23;6.00;;;5.40;;
9918;SDS011;4998;51.024;13.828;2023-01-29T03:11:57;5.63;;;5.07;;
9918;SDS011;4998;51.024;13.828;2023-01-29T03:14:44;6.63;;;5.90;;
9918;SDS011;4998;51.024;13.828;2023-01-29T03:17:29;8.83;;;6.53;;
9918;SDS011;4998;51.024;13.828;2023-01-29T03:20:02;7.57;;;6.77;;
9918;SDS011;4998;51.024;13.828;2023-01-29T03:22:33;7.10;;;6.40;;
9918;SDS011;4998;51.024;13.828;2023-01-29T03:25:02;7.97;;;6.90;;
9918;SDS011;4998;51.024;13.828;2023-01-29T03:27:48;9.03;;;6.50;;
9918;SDS011;4998;51.024;13.828;2023-01-29T03:30:39;6.10;;;5.57;;
9918;SDS011;4998;51.024;13.828;2023-01-29T03:33:26;6.93;;;6.33;;
9918;SDS011;4998;51.024;13.828;2023-01-29T03:39:10;10.43;;;6.23;;
9918;SDS011;4998;51.024;13.828;2023-01-29T03:41:39;5.97;;;5.47;;
9918;SDS011;4998;51.024;13.828;2023-01-29T03:44:12;6.90;;;5.60;;
9918;SDS011;4998;51.024;13.828;2023-01-29T03:46:46;6.00;;;5.40;;
9918;SDS011;4998;51.024;13.828;2023-01-29T03:49:23;7.00;;;6.40;;
9918;SDS011;4998;51.024;13.828;2023-01-29T03:52:00;6.17;;;5.60;;
9918;SDS011;4998;51.024;13.828;2023-01-29T03:54:33;6.43;;;5.53;;
9918;SDS011;4998;51.024;13.828;2023-01-29T03:57:11;6.63;;;5.93;;
9918;SDS011;4998;51.024;13.828;2023-01-29T03:59:44;6.07;;;5.43;;
9918;SDS011;4998;51.024;13.828;2023-01-29T04:02:21;6.10;;;5.50;;
9918;SDS011;4998;51.024;13.828;2023-01-29T04:04:52;6.03;;;5.43;;
9918;SDS011;4998;51.024;13.828;2023-01-29T04:07:25;5.57;;;5.07;;
9918;SDS011;4998;51.024;13.828;2023-01-29T04:09:59;5.50;;;5.00;;
9918;SDS011;4998;51.024;13.828;2023-01-29T04:12:32;6.50;;;5.00;;
9918;SDS011;4998;51.024;13.828;2023-01-29T04:15:03;6.43;;;5.83;;
9918;SDS011;4998;51.024;13.828;2023-01-29T04:17:36;5.10;;;4.60;;
9918;SDS011;4998;51.024;13.828;2023-01-29T04:20:07;5.57;;;5.07;;
9918;SDS011;4998;51.024;13.828;2023-01-29T04:22:36;5.30;;;4.80;;
9918;SDS011;4998;51.024;13.828;2023-01-29T04:25:06;5.60;;;5.10;;
9918;SDS011;4998;51.024;13.828;2023-01-29T04:27:41;5.33;;;4.83;;
9918;SDS011;4998;51.024;13.828;2023-01-29T04:30:15;5.40;;;4.90;;
9918;SDS011;4998;51.024;13.828;2023-01-29T04:32:59;5.73;;;5.23;;
9918;SDS011;4998;51.024;13.828;2023-01-29T04:35:34;4.90;;;4.50;;
9918;SDS011;4998;51.024;13.828;2023-01-29T04:38:11;5.97;;;5.37;;
9918;SDS011;4998;51.024;13.828;2023-01-29T04:40:53;5.53;;;5.03;;
9918;SDS011;4998;51.024;13.828;2023-01-29T04:43:28;6.27;;;5.57;;
9918;SDS011;4998;51.024;13.828;2023-01-29T04:46:07;5.63;;;5.17;;
9918;SDS011;4998;51.024;13.828;2023-01-29T04:48:43;6.77;;;5.83;;
9918;SDS011;4998;51.024;13.828;2023-01-29T04:51:21;6.67;;;5.60;;
9918;SDS011;4998;51.024;13.828;2023-01-29T04:53:56;6.03;;;5.50;;
9918;SDS011;4998;51.024;13.828;2023-01-29T04:56:33;6.07;;;5.57;;
9918;SDS011;4998;51.024;13.828;2023-01-29T04:59:06;6.73;;;6.10;;
9918;SDS011;4998;51.024;13.828;2023-01-29T05:01:37;6.30;;;5.70;;
9918;SDS011;4998;51.024;13.828;2023-01-29T05:04:07;7.50;;;6.80;;
9918;SDS011;4998;51.024;13.828;2023-01-29T05:06:38;6.10;;;5.50;;
9918;SDS011;4998;51.024;13.828;2023-01-29T05:09:07;7.60;;;6.20;;
9918;SDS011;4998;51.024;13.828;2023-01-29T05:11:35;9.47;;;7.20;;
9918;SDS011;4998;51.024;13.828;2023-01-29T05:14:03;9.87;;;6.40;;
9918;SDS011;4998;51.024;13.828;2023-01-29T05:16:33;8.10;;;6.70;;
9918;SDS011;4998;51.024;13.828;2023-01-29T05:19:09;7.30;;;6.33;;
9918;SDS011;4998;51.024;13.828;2023-01-29T05:21:38;7.13;;;5.73;;
9918;SDS011;4998;51.024;13.828;2023-01-29T05:24:08;6.53;;;5.93;;
9918;SDS011;4998;51.024;13.828;2023-01-29T05:26:36;9.60;;;7.10;;
9918;SDS011;4998;51.024;13.828;2023-01-29T05:29:21;8.17;;;6.77;;
9918;SDS011;4998;51.024;13.828;2023-01-29T05:31:48;7.47;;;6.77;;
9918;SDS011;4998;51.024;13.828;2023-01-29T05:34:16;7.67;;;6.97;;
9918;SDS011;4998;51.024;13.828;2023-01-29T05:36:43;8.23;;;6.20;;
9918;SDS011;4998;51.024;13.828;2023-01-29T05:39:10;7.20;;;6.50;;
9918;SDS011;4998;51.024;13.828;2023-01-29T05:41:37;6.47;;;5.87;;
9918;SDS011;4998;51.024;13.828;2023-01-29T05:44:04;7.03;;;6.33;;
9918;SDS011;4998;51.024;13.828;2023-01-29T05:46:31;9.23;;;6.47;;
9918;SDS011;4998;51.024;13.828;2023-01-29T05:48:58;9.30;;;7.07;;
9918;SDS011;4998;51.024;13.828;2023-01-29T05:51:27;8.13;;;7.33;;
9918;SDS011;4998;51.024;13.828;2023-01-29T05:53:54;7.97;;;6.67;;
9918;SDS011;4998;51.024;13.828;2023-01-29T05:56:22;7.97;;;7.20;;
9918;SDS011;4998;51.024;13.828;2023-01-29T05:58:49;7.13;;;6.43;;
9918;SDS011;4998;51.024;13.828;2023-01-29T06:01:17;6.53;;;5.93;;
9918;SDS011;4998;51.024;13.828;2023-01-29T06:03:46;6.60;;;5.93;;
9918;SDS011;4998;51.024;13.828;2023-01-29T06:06:14;6.83;;;6.17;;
9918;SDS011;4998;51.024;13.828;2023-01-29T06:08:42;7.10;;;6.40;;
9918;SDS011;4998;51.024;13.828;2023-01-29T06:11:10;7.57;;;6.60;;
9918;SDS011;4998;51.024;13.828;2023-01-29T06:13:38;7.40;;;6.33;;
9918;SDS011;4998;51.024;13.828;2023-01-29T06:16:06;6.73;;;6.13;;
9918;SDS011;4998;51.024;13.828;2023-01-29T06:18:34;7.30;;;6.60;;
9918;SDS011;4998;51.024;13.828;2023-01-29T06:21:01;6.40;;;5.80;;
9918;SDS011;4998;51.024;13.828;2023-01-29T06:23:29;7.10;;;6.40;;
9918;SDS011;4998;51.024;13.828;2023-01-29T06:26:02;6.93;;;6.27;;
9918;SDS011;4998;51.024;13.828;2023-01-29T06:28:30;7.90;;;6.77;;
9918;SDS011;4998;51.024;13.828;2023-01-29T06:30:57;9.60;;;5.70;;
9918;SDS011;4998;51.024;13.828;2023-01-29T06:33:26;6.50;;;5.90;;
9918;SDS011;4998;51.024;13.828;2023-01-29T06:35:54;6.57;;;5.63;;
9918;SDS011;4998;51.024;13.828;2023-01-29T06:38:23;6.53;;;5.93;;
9918;SDS011;4998;51.024;13.828;2023-01-29T06:40:51;8.30;;;6.20;;
9918;SDS011;4998;51.024;13.828;2023-01-29T06:43:21;6.10;;;5.30;;
9918;SDS011;4998;51.024;13.828;2023-01-29T06:45:49;6.50;;;5.90;;
9918;SDS011;4998;51.024;13.828;2023-01-29T06:48:17;7.60;;;6.30;;
9918;SDS011;4998;51.024;13.828;2023-01-29T06:50:44;6.53;;;5.93;;
9918;SDS011;4998;51.024;13.828;2023-01-29T06:53:13;6.70;;;6.00;;
9918;SDS011;4998;51.024;13.828;2023-01-29T06:55:40;6.33;;;5.70;;
9918;SDS011;4998;51.024;13.828;2023-01-29T06:58:08;6.70;;;6.10;;
9918;SDS011;4998;51.024;13.828;2023-01-29T07:00:38;7.80;;;6.70;;
9918;SDS011;4998;51.024;13.828;2023-01-29T07:03:05;6.40;;;5.60;;
9918;SDS011;4998;51.024;13.828;2023-01-29T07:05:35;7.00;;;6.30;;
9918;SDS011;4998;51.024;13.828;2023-01-29T07:08:02;9.03;;;6.70;;
9918;SDS011;4998;51.024;13.828;2023-01-29T07:10:29;7.40;;;6.40;;
9918;SDS011;4998;51.024;13.828;2023-01-29T07:12:57;9.03;;;6.27;;
9918;SDS011;4998;51.024;13.828;2023-01-29T07:15:24;7.00;;;6.40;;
9918;SDS011;4998;51.024;13.828;2023-01-29T07:17:57;6.50;;;5.87;;
9918;SDS011;4998;51.024;13.828;2023-01-29T07:20:25;6.40;;;5.80;;
9918;SDS011;4998;51.024;13.828;2023-01-29T07:22:53;6.43;;;5.60;;
9918;SDS011;4998;51.024;13.828;2023-01-29T07:25:20;7.60;;;5.87;;
9918;SDS011;4998;51.024;13.828;2023-01-29T07:27:47;6.50;;;5.90;;
9918;SDS011;4998;51.024;13.828;2023-01-29T07:30:15;5.77;;;5.30;;
9918;SDS011;4998;51.024;13.828;2023-01-29T07:32:43;8.40;;;5.63;;
9918;SDS011;4998;51.024;13.828;2023-01-29T07:35:11;5.30;;;4.90;;
9918;SDS011;4998;51.024;13.828;2023-01-29T07:37:38;6.10;;;5.50;;
9918;SDS011;4998;51.024;13.828;2023-01-29T07:40:06;5.40;;;4.90;;
9918;SDS011;4998;51.024;13.828;2023-01-29T07:42:36;5.53;;;5.03;;
9918;SDS011;4998;51.024;13.828;2023-01-29T07:45:06;5.63;;;5.13;;
9918;SDS011;4998;51.024;13.828;2023-01-29T07:47:34;6.40;;;5.80;;
9918;SDS011;4998;51.024;13.828;2023-01-29T07:50:01;5.83;;;5.27;;
9918;SDS011;4998;51.024;13.828;2023-01-29T07:52:31;6.20;;;5.70;;
9918;SDS011;4998;51.024;13.828;2023-01-29T07:54:58;5.97;;;5.37;;
9918;SDS011;4998;51.024;13.828;2023-01-29T07:57:25;6.20;;;5.60;;
9918;SDS011;4998;51.024;13.828;2023-01-29T07:59:52;6.40;;;5.63;;
9918;SDS011;4998;51.024;13.828;2023-01-29T08:02:20;5.83;;;5.33;;
9918;SDS011;4998;51.024;13.828;2023-01-29T08:04:47;5.90;;;5.23;;
9918;SDS011;4998;51.024;13.828;2023-01-29T08:07:14;5.20;;;4.70;;
9918;SDS011;4998;51.024;13.828;2023-01-29T08:09:43;6.80;;;5.30;;
9918;SDS011;4998;51.024;13.828;2023-01-29T08:12:10;5.67;;;5.20;;
9918;SDS011;4998;51.024;13.828;2023-01-29T08:14:37;6.13;;;5.57;;
9918;SDS011;4998;51.024;13.828;2023-01-29T08:17:05;6.13;;;5.53;;
9918;SDS011;4998;51.024;13.828;2023-01-29T08:19:32;5.80;;;5.30;;
9918;SDS011;4998;51.024;13.828;2023-01-29T08:21:59;5.90;;;5.30;;
9918;SDS011;4998;51.024;13.828;2023-01-29T08:24:26;5.50;;;5.10;;
9918;SDS011;4998;51.024;13.828;2023-01-29T08:26:55;6.70;;;6.00;;
9918;SDS011;4998;51.024;13.828;2023-01-29T08:29:22;5.83;;;5.23;;
9918;SDS011;4998;51.024;13.828;2023-01-29T08:31:49;5.00;;;4.60;;
9918;SDS011;4998;51.024;13.828;2023-01-29T08:34:16;6.33;;;5.63;;
9918;SDS011;4998;51.024;13.828;2023-01-29T08:36:43;9.07;;;5.50;;
9918;SDS011;4998;51.024;13.828;2023-01-29T08:39:11;5.80;;;5.30;;
9918;SDS011;4998;51.024;13.828;2023-01-29T08:41:38;6.57;;;5.87;;
9918;SDS011;4998;51.024;13.828;2023-01-29T08:44:07;6.20;;;5.60;;
9918;SDS011;4998;51.024;13.828;2023-01-29T08:46:35;6.20;;;5.60;;
9918;SDS011;4998;51.024;13.828;2023-01-29T08:49:04;5.07;;;4.67;;
9918;SDS011;4998;51.024;13.828;2023-01-29T08:51:32;6.70;;;6.10;;
9918;SDS011;4998;51.024;13.828;2023-01-29T08:54:00;6.17;;;5.57;;
9918;SDS011;4998;51.024;13.828;2023-01-29T08:56:27;6.50;;;5.57;;
9918;SDS011;4998;51.024;13.828;2023-01-29T08:58:54;6.30;;;5.70;;
9918;SDS011;4998;51.024;13.828;2023-01-29T09:01:23;5.83;;;5.27;;
9918;SDS011;4998;51.024;13.828;2023-01-29T09:03:50;6.33;;;5.47;;
9918;SDS011;4998;51.024;13.828;2023-01-29T09:06:18;6.40;;;5.83;;
9918;SDS011;4998;51.024;13.828;2023-01-29T09:08:45;7.47;;;5.40;;
9918;SDS011;4998;51.024;13.828;2023-01-29T09:11:14;6.67;;;5.80;;
9918;SDS011;4998;51.024;13.828;2023-01-29T09:13:41;6.10;;;5.50;;
9918;SDS011;4998;51.024;13.828;2023-01-29T09:16:08;6.20;;;5.60;;
9918;SDS011;4998;51.024;13.828;2023-01-29T09:18:37;6.60;;;5.47;;
9918;SDS011;4998;51.024;13.828;2023-01-29T09:21:04;5.80;;;5.30;;
9918;SDS011;4998;51.024;13.828;2023-01-29T09:23:31;5.30;;;4.90;;
9918;SDS011;4998;51.024;13.828;2023-01-29T09:26:00;6.00;;;5.40;;
9918;SDS011;4998;51.024;13.828;2023-01-29T09:28:27;5.57;;;5.00;;
9918;SDS011;4998;51.024;13.828;2023-01-29T09:30:54;8.30;;;6.40;;
9918;SDS011;4998;51.024;13.828;2023-01-29T09:33:22;6.47;;;5.80;;
9918;SDS011;4998;51.024;13.828;2023-01-29T09:35:51;7.40;;;6.60;;
9918;SDS011;4998;51.024;13.828;2023-01-29T09:38:18;6.63;;;6.03;;
9918;SDS011;4998;51.024;13.828;2023-01-29T09:40:47;6.43;;;5.80;;
9918;SDS011;4998;51.024;13.828;2023-01-29T09:43:22;7.33;;;5.50;;
9918;SDS011;4998;51.024;13.828;2023-01-29T09:45:58;5.90;;;5.40;;
9918;SDS011;4998;51.024;13.828;2023-01-29T09:48:30;6.20;;;5.60;;
9918;SDS011;4998;51.024;13.828;2023-01-29T09:51:03;6.73;;;6.13;;
9918;SDS011;4998;51.024;13.828;2023-01-29T09:53:38;9.30;;;6.50;;
9918;SDS011;4998;51.024;13.828;2023-01-29T09:56:11;6.40;;;5.80;;
9918;SDS011;4998;51.024;13.828;2023-01-29T09:58:43;6.80;;;6.10;;
9918;SDS011;4998;51.024;13.828;2023-01-29T10:01:11;10.07;;;6.37;;
9918;SDS011;4998;51.024;13.828;2023-01-29T10:03:47;6.67;;;5.83;;
9918;SDS011;4998;51.024;13.828;2023-01-29T10:06:33;6.33;;;5.73;;
9918;SDS011;4998;51.024;13.828;2023-01-29T10:12:17;5.87;;;5.37;;
9918;SDS011;4998;51.024;13.828;2023-01-29T10:14:59;6.13;;;5.53;;
9918;SDS011;4998;51.024;13.828;2023-01-29T10:17:43;6.97;;;6.10;;
9918;SDS011;4998;51.024;13.828;2023-01-29T10:20:27;7.43;;;6.30;;
9918;SDS011;4998;51.024;13.828;2023-01-29T10:23:09;6.40;;;5.80;;
9918;SDS011;4998;51.024;13.828;2023-01-29T10:25:44;5.57;;;5.07;;
9918;SDS011;4998;51.024;13.828;2023-01-29T10:28:14;10.30;;;6.37;;
9918;SDS011;4998;51.024;13.828;2023-01-29T10:30:45;6.20;;;5.60;;
9918;SDS011;4998;51.024;13.828;2023-01-29T10:33:19;10.57;;;5.67;;
9918;SDS011;4998;51.024;13.828;2023-01-29T10:35:52;6.33;;;5.73;;
9918;SDS011;4998;51.024;13.828;2023-01-29T10:38:27;6.43;;;5.83;;
9918;SDS011;4998;51.024;13.828;2023-01-29T10:41:05;7.37;;;6.20;;
9918;SDS011;4998;51.024;13.828;2023-01-29T10:43:49;6.47;;;5.83;;
9918;SDS011;4998;51.024;13.828;2023-01-29T10:46:26;5.87;;;5.37;;
9918;SDS011;4998;51.024;13.828;2023-01-29T10:49:04;6.43;;;5.83;;
9918;SDS011;4998;51.024;13.828;2023-01-29T10:51:46;7.20;;;5.60;;
9918;SDS011;4998;51.024;13.828;2023-01-29T10:54:41;6.53;;;5.93;;
9918;SDS011;4998;51.024;13.828;2023-01-29T10:57:19;6.07;;;5.50;;
9918;SDS011;4998;51.024;13.828;2023-01-29T11:00:00;6.90;;;6.03;;
9918;SDS011;4998;51.024;13.828;2023-01-29T11:02:36;9.13;;;6.37;;
9918;SDS011;4998;51.024;13.828;2023-01-29T11:05:11;7.23;;;6.43;;
9918;SDS011;4998;51.024;13.828;2023-01-29T11:07:45;7.37;;;5.77;;
9918;SDS011;4998;51.024;13.828;2023-01-29T11:12:47;7.50;;;6.80;;
9918;SDS011;4998;51.024;13.828;2023-01-29T11:15:16;7.20;;;6.47;;
9918;SDS011;4998;51.024;13.828;2023-01-29T11:18:00;9.07;;;7.00;;
9918;SDS011;4998;51.024;13.828;2023-01-29T11:20:29;6.87;;;6.10;;
9918;SDS011;4998;51.024;13.828;2023-01-29T11:22:58;7.77;;;7.07;;
9918;SDS011;4998;51.024;13.828;2023-01-29T11:25:26;7.40;;;6.07;;
9918;SDS011;4998;51.024;13.828;2023-01-29T11:27:57;6.67;;;5.97;;
9918;SDS011;4998;51.024;13.828;2023-01-29T11:30:26;6.87;;;6.17;;
9918;SDS011;4998;51.024;13.828;2023-01-29T11:32:57;7.67;;;6.87;;
9918;SDS011;4998;51.024;13.828;2023-01-29T11:35:32;25.37;;;17.30;;
9918;SDS011;4998;51.024;13.828;2023-01-29T11:38:08;14.90;;;11.63;;
9918;SDS011;4998;51.024;13.828;2023-01-29T11:40:45;9.83;;;7.87;;
9918;SDS011;4998;51.024;13.828;2023-01-29T11:43:17;8.40;;;7.50;;
9918;SDS011;4998;51.024;13.828;2023-01-29T11:45:46;8.70;;;6.53;;
9918;SDS011;4998;51.024;13.828;2023-01-29T11:48:15;7.83;;;7.03;;
9918;SDS011;4998;51.024;13.828;2023-01-29T11:50:49;7.77;;;6.87;;
9918;SDS011;4998;51.024;13.828;2023-01-29T11:53:20;8.87;;;7.00;;
9918;SDS011;4998;51.024;13.828;2023-01-29T11:55:54;6.10;;;5.50;;
9918;SDS011;4998;51.024;13.828;2023-01-29T11:58:23;6.07;;;5.50;;
9918;SDS011;4998;51.024;13.828;2023-01-29T12:00:54;38.53;;;26.60;;
9918;SDS011;4998;51.024;13.828;2023-01-29T12:03:27;56.83;;;37.97;;
9918;SDS011;4998;51.024;13.828;2023-01-29T12:05:59;37.10;;;26.73;;
9918;SDS011;4998;51.024;13.828;2023-01-29T12:08:30;20.50;;;14.70;;
9918;SDS011;4998;51.024;13.828;2023-01-29T12:11:11;13.03;;;10.10;;
9918;SDS011;4998;51.024;13.828;2023-01-29T12:13:42;9.33;;;8.13;;
9918;SDS011;4998;51.024;13.828;2023-01-29T12:16:22;8.50;;;7.10;;
9918;SDS011;4998;51.024;13.828;2023-01-29T12:18:59;8.00;;;6.87;;
9918;SDS011;4998;51.024;13.828;2023-01-29T12:21:38;7.27;;;6.57;;
9918;SDS011;4998;51.024;13.828;2023-01-29T12:24:19;6.90;;;6.20;;
9918;SDS011;4998;51.024;13.828;2023-01-29T12:27:06;6.97;;;6.30;;
9918;SDS011;4998;51.024;13.828;2023-01-29T12:29:43;7.10;;;6.40;;
9918;SDS011;4998;51.024;13.828;2023-01-29T12:32:21;7.03;;;6.33;;
9918;SDS011;4998;51.024;13.828;2023-01-29T12:35:00;28.23;;;17.73;;
9918;SDS011;4998;51.024;13.828;2023-01-29T12:37:44;28.57;;;20.40;;
9918;SDS011;4998;51.024;13.828;2023-01-29T12:40:24;12.80;;;11.20;;
9918;SDS011;4998;51.024;13.828;2023-01-29T12:43:00;8.47;;;7.57;;
9918;SDS011;4998;51.024;13.828;2023-01-29T12:45:39;7.90;;;7.10;;
9918;SDS011;4998;51.024;13.828;2023-01-29T12:48:13;7.80;;;6.53;;
9918;SDS011;4998;51.024;13.828;2023-01-29T12:50:50;6.30;;;5.70;;
9918;SDS011;4998;51.024;13.828;2023-01-29T12:53:23;7.50;;;6.10;;
9918;SDS011;4998;51.024;13.828;2023-01-29T12:55:58;7.27;;;6.30;;
9918;SDS011;4998;51.024;13.828;2023-01-29T12:58:35;8.03;;;6.47;;
9918;SDS011;4998;51.024;13.828;2023-01-29T13:01:11;6.80;;;6.10;;
9918;SDS011;4998;51.024;13.828;2023-01-29T13:03:44;6.27;;;5.53;;
9918;SDS011;4998;51.024;13.828;2023-01-29T13:06:19;6.10;;;5.50;;
9918;SDS011;4998;51.024;13.828;2023-01-29T13:08:52;7.03;;;6.07;;
9918;SDS011;4998;51.024;13.828;2023-01-29T13:11:25;27.33;;;17.77;;
9918;SDS011;4998;51.024;13.828;2023-01-29T13:14:04;44.07;;;27.37;;
9918;SDS011;4998;51.024;13.828;2023-01-29T13:16:46;21.13;;;16.10;;
9918;SDS011;4998;51.024;13.828;2023-01-29T13:19:20;12.70;;;10.50;;
9918;SDS011;4998;51.024;13.828;2023-01-29T13:21:53;10.23;;;8.30;;
9918;SDS011;4998;51.024;13.828;2023-01-29T13:24:29;7.20;;;6.50;;
9918;SDS011;4998;51.024;13.828;2023-01-29T13:27:04;7.83;;;6.60;;
9918;SDS011;4998;51.024;13.828;2023-01-29T13:29:34;6.50;;;5.90;;
9918;SDS011;4998;51.024;13.828;2023-01-29T13:32:02;7.47;;;5.80;;
9918;SDS011;4998;51.024;13.828;2023-01-29T13:34:31;6.10;;;5.60;;
9918;SDS011;4998;51.024;13.828;2023-01-29T13:37:00;6.10;;;5.30;;
9918;SDS011;4998;51.024;13.828;2023-01-29T13:39:35;6.00;;;5.40;;
9918;SDS011;4998;51.024;13.828;2023-01-29T13:42:13;5.73;;;5.23;;
9918;SDS011;4998;51.024;13.828;2023-01-29T13:44:47;6.23;;;5.63;;
9918;SDS011;4998;51.024;13.828;2023-01-29T13:47:20;6.00;;;5.47;;
9918;SDS011;4998;51.024;13.828;2023-01-29T13:49:53;6.93;;;5.40;;
9918;SDS011;4998;51.024;13.828;2023-01-29T13:52:26;5.60;;;5.10;;
9918;SDS011;4998;51.024;13.828;2023-01-29T13:55:00;6.07;;;5.47;;
9918;SDS011;4998;51.024;13.828;2023-01-29T13:57:50;5.57;;;5.07;;
9918;SDS011;4998;51.024;13.828;2023-01-29T14:09:28;5.63;;;5.10;;
9918;SDS011;4998;51.024;13.828;2023-01-29T14:15:16;7.43;;;5.80;;
9918;SDS011;4998;51.024;13.828;2023-01-29T14:18:01;5.03;;;4.60;;
9918;SDS011;4998;51.024;13.828;2023-01-29T14:20:32;6.93;;;5.73;;
9918;SDS011;4998;51.024;13.828;2023-01-29T14:23:03;7.00;;;5.77;;
9918;SDS011;4998;51.024;13.828;2023-01-29T14:25:31;6.07;;;5.47;;
9918;SDS011;4998;51.024;13.828;2023-01-29T14:28:00;6.93;;;6.20;;
9918;SDS011;4998;51.024;13.828;2023-01-29T14:30:30;6.83;;;5.60;;
9918;SDS011;4998;51.024;13.828;2023-01-29T14:33:01;5.83;;;5.33;;
9918;SDS011;4998;51.024;13.828;2023-01-29T14:35:39;6.13;;;5.53;;
9918;SDS011;4998;51.024;13.828;2023-01-29T14:38:16;7.10;;;5.30;;
9918;SDS011;4998;51.024;13.828;2023-01-29T14:40:43;6.10;;;5.10;;
9918;SDS011;4998;51.024;13.828;2023-01-29T14:43:15;5.90;;;5.30;;
9918;SDS011;4998;51.024;13.828;2023-01-29T14:45:45;6.23;;;5.60;;
9918;SDS011;4998;51.024;13.828;2023-01-29T14:48:34;6.33;;;5.73;;
9918;SDS011;4998;51.024;13.828;2023-01-29T14:51:07;5.53;;;5.03;;
9918;SDS011;4998;51.024;13.828;2023-01-29T14:53:47;5.90;;;5.40;;
9918;SDS011;4998;51.024;13.828;2023-01-29T14:56:22;8.10;;;5.47;;
9918;SDS011;4998;51.024;13.828;2023-01-29T14:58:53;5.77;;;4.93;;
9918;SDS011;4998;51.024;13.828;2023-01-29T15:01:27;5.97;;;5.37;;
9918;SDS011;4998;51.024;13.828;2023-01-29T15:04:03;5.30;;;4.80;;
9918;SDS011;4998;51.024;13.828;2023-01-29T15:06:33;5.80;;;5.30;;
9918;SDS011;4998;51.024;13.828;2023-01-29T15:09:10;6.60;;;5.27;;
9918;SDS011;4998;51.024;13.828;2023-01-29T15:11:45;5.67;;;5.17;;
9918;SDS011;4998;51.024;13.828;2023-01-29T15:14:16;8.03;;;5.47;;
9918;SDS011;4998;51.024;13.828;2023-01-29T15:17:05;5.33;;;4.83;;
9918;SDS011;4998;51.024;13.828;2023-01-29T15:19:44;5.87;;;5.20;;
9918;SDS011;4998;51.024;13.828;2023-01-29T15:22:13;5.70;;;5.17;;
9918;SDS011;4998;51.024;13.828;2023-01-29T15:24:42;5.50;;;4.83;;
9918;SDS011;4998;51.024;13.828;2023-01-29T15:27:12;9.07;;;5.70;;
9918;SDS011;4998;51.024;13.828;2023-01-29T15:29:42;5.40;;;5.00;;
9918;SDS011;4998;51.024;13.828;2023-01-29T15:32:14;5.93;;;5.23;;
9918;SDS011;4998;51.024;13.828;2023-01-29T15:34:54;5.87;;;5.10;;
9918;SDS011;4998;51.024;13.828;2023-01-29T15:37:26;5.90;;;5.30;;
9918;SDS011;4998;51.024;13.828;2023-01-29T15:39:54;6.87;;;6.20;;
9918;SDS011;4998;51.024;13.828;2023-01-29T15:42:22;6.37;;;5.23;;
9918;SDS011;4998;51.024;13.828;2023-01-29T15:44:51;5.47;;;4.80;;
9918;SDS011;4998;51.024;13.828;2023-01-29T15:47:20;5.70;;;5.07;;
9918;SDS011;4998;51.024;13.828;2023-01-29T15:49:54;5.53;;;5.00;;
9918;SDS011;4998;51.024;13.828;2023-01-29T15:52:23;8.30;;;6.90;;
9918;SDS011;4998;51.024;13.828;2023-01-29T15:54:53;9.90;;;6.53;;
9918;SDS011;4998;51.024;13.828;2023-01-29T15:57:22;7.20;;;5.77;;